sensor_id;sensor_type;location;lat;lon;timestamp;temperature;humidity
4874;DHT22;2451;49.970;9.068;2022-09-16T00:01:15;15.10;99.90
4874;DHT22;2451;49.970;9.068;2022-09-16T00:03:41;15.10;99.90
4874;DHT22;2451;49.970;9.068;2022-09-16T00:06:17;15.10;99.90
4874;DHT22;2451;49.970;9.068;2022-09-16T00:08:43;15.10;99.90
4874;DHT22;2451;49.970;9.068;2022-09-16T00:11:10;15.10;99.90
4874;DHT22;2451;49.970;9.068;2022-09-16T00:13:36;15.10;99.90
4874;DHT22;2451;49.970;9.068;2022-09-16T00:16:09;15.10;99.90
4874;DHT22;2451;49.970;9.068;2022-09-16T00:18:35;15.10;99.90
4874;DHT22;2451;49.970;9.068;2022-09-16T00:21:01;15.10;99.90
4874;DHT22;2451;49.970;9.068;2022-09-16T00:23:26;15.10;99.90
4874;DHT22;2451;49.970;9.068;2022-09-16T00:25:53;15.10;99.90
4874;DHT22;2451;49.970;9.068;2022-09-16T00:28:20;15.00;99.90
4874;DHT22;2451;49.970;9.068;2022-09-16T00:30:47;15.00;99.90
4874;DHT22;2451;49.970;9.068;2022-09-16T00:33:12;15.00;99.90
4874;DHT22;2451;49.970;9.068;2022-09-16T00:35:38;15.00;99.90
4874;DHT22;2451;49.970;9.068;2022-09-16T00:38:04;15.00;99.90
4874;DHT22;2451;49.970;9.068;2022-09-16T00:40:29;14.90;99.90
4874;DHT22;2451;49.970;9.068;2022-09-16T00:42:55;14.90;99.90
4874;DHT22;2451;49.970;9.068;2022-09-16T00:45:23;15.00;99.90
4874;DHT22;2451;49.970;9.068;2022-09-16T00:47:52;15.00;99.90
4874;DHT22;2451;49.970;9.068;2022-09-16T00:50:36;14.90;99.90
4874;DHT22;2451;49.970;9.068;2022-09-16T00:53:04;14.90;99.90
4874;DHT22;2451;49.970;9.068;2022-09-16T00:55:35;14.90;99.90
4874;DHT22;2451;49.970;9.068;2022-09-16T00:58:13;14.90;99.90
4874;DHT22;2451;49.970;9.068;2022-09-16T01:00:40;14.90;99.90
4874;DHT22;2451;49.970;9.068;2022-09-16T01:03:07;14.90;99.90
4874;DHT22;2451;49.970;9.068;2022-09-16T01:05:32;14.80;99.90
4874;DHT22;2451;49.970;9.068;2022-09-16T01:07:58;14.80;99.90
4874;DHT22;2451;49.970;9.068;2022-09-16T01:10:25;14.80;99.90
4874;DHT22;2451;49.970;9.068;2022-09-16T01:12:55;14.80;99.90
4874;DHT22;2451;49.970;9.068;2022-09-16T01:15:27;14.80;99.90
4874;DHT22;2451;49.970;9.068;2022-09-16T01:18:17;14.70;99.90
4874;DHT22;2451;49.970;9.068;2022-09-16T01:21:10;14.70;99.90
4874;DHT22;2451;49.970;9.068;2022-09-16T01:26:48;14.70;99.90
4874;DHT22;2451;49.970;9.068;2022-09-16T01:35:02;14.60;99.90
4874;DHT22;2451;49.970;9.068;2022-09-16T01:37:36;14.60;99.90
4874;DHT22;2451;49.970;9.068;2022-09-16T01:43:19;14.60;99.90
4874;DHT22;2451;49.970;9.068;2022-09-16T01:45:55;14.60;99.90
4874;DHT22;2451;49.970;9.068;2022-09-16T01:48:36;14.60;99.90
4874;DHT22;2451;49.970;9.068;2022-09-16T01:51:28;14.60;99.90
4874;DHT22;2451;49.970;9.068;2022-09-16T01:57:23;14.60;99.90
4874;DHT22;2451;49.970;9.068;2022-09-16T02:02:36;14.50;99.90
4874;DHT22;2451;49.970;9.068;2022-09-16T02:05:08;14.50;99.90
4874;DHT22;2451;49.970;9.068;2022-09-16T02:07:38;14.50;99.90
4874;DHT22;2451;49.970;9.068;2022-09-16T02:10:42;14.60;99.90
4874;DHT22;2451;49.970;9.068;2022-09-16T02:13:20;14.50;99.90
4874;DHT22;2451;49.970;9.068;2022-09-16T02:15:49;14.50;99.90
4874;DHT22;2451;49.970;9.068;2022-09-16T02:18:19;14.50;99.90
4874;DHT22;2451;49.970;9.068;2022-09-16T02:20:48;14.50;99.90
4874;DHT22;2451;49.970;9.068;2022-09-16T02:23:24;14.50;99.90
4874;DHT22;2451;49.970;9.068;2022-09-16T02:25:52;14.50;99.90
4874;DHT22;2451;49.970;9.068;2022-09-16T02:28:23;14.50;99.90
4874;DHT22;2451;49.970;9.068;2022-09-16T02:30:53;14.50;99.90
4874;DHT22;2451;49.970;9.068;2022-09-16T02:33:22;14.40;99.90
4874;DHT22;2451;49.970;9.068;2022-09-16T02:35:51;14.40;99.90
4874;DHT22;2451;49.970;9.068;2022-09-16T02:38:42;14.30;99.90
4874;DHT22;2451;49.970;9.068;2022-09-16T02:41:09;14.30;99.90
4874;DHT22;2451;49.970;9.068;2022-09-16T02:43:42;14.30;99.90
4874;DHT22;2451;49.970;9.068;2022-09-16T02:46:25;14.30;99.90
4874;DHT22;2451;49.970;9.068;2022-09-16T02:51:30;14.30;99.90
4874;DHT22;2451;49.970;9.068;2022-09-16T02:56:53;14.30;99.90
4874;DHT22;2451;49.970;9.068;2022-09-16T02:59:20;14.30;99.90
4874;DHT22;2451;49.970;9.068;2022-09-16T03:01:46;14.30;99.90
4874;DHT22;2451;49.970;9.068;2022-09-16T03:04:14;14.30;99.90
4874;DHT22;2451;49.970;9.068;2022-09-16T03:06:40;14.20;99.90
4874;DHT22;2451;49.970;9.068;2022-09-16T03:09:09;14.20;99.90
4874;DHT22;2451;49.970;9.068;2022-09-16T03:15:20;14.30;99.90
4874;DHT22;2451;49.970;9.068;2022-09-16T03:18:34;14.30;99.90
4874;DHT22;2451;49.970;9.068;2022-09-16T03:21:23;14.20;99.90
4874;DHT22;2451;49.970;9.068;2022-09-16T03:24:11;14.30;99.90
4874;DHT22;2451;49.970;9.068;2022-09-16T03:26:48;14.20;99.90
4874;DHT22;2451;49.970;9.068;2022-09-16T03:29:34;14.30;99.90
4874;DHT22;2451;49.970;9.068;2022-09-16T03:34:40;14.20;99.90
4874;DHT22;2451;49.970;9.068;2022-09-16T03:37:10;14.30;99.90
4874;DHT22;2451;49.970;9.068;2022-09-16T03:39:37;14.20;99.90
4874;DHT22;2451;49.970;9.068;2022-09-16T03:42:06;14.30;99.90
4874;DHT22;2451;49.970;9.068;2022-09-16T03:44:35;14.30;99.90
4874;DHT22;2451;49.970;9.068;2022-09-16T03:47:07;14.20;99.90
4874;DHT22;2451;49.970;9.068;2022-09-16T03:49:34;14.20;99.90
4874;DHT22;2451;49.970;9.068;2022-09-16T03:51:59;14.20;99.90
4874;DHT22;2451;49.970;9.068;2022-09-16T03:54:25;14.20;99.90
4874;DHT22;2451;49.970;9.068;2022-09-16T03:56:52;14.10;99.90
4874;DHT22;2451;49.970;9.068;2022-09-16T03:59:18;14.10;99.90
4874;DHT22;2451;49.970;9.068;2022-09-16T04:01:44;14.10;99.90
4874;DHT22;2451;49.970;9.068;2022-09-16T04:04:09;14.10;99.90
4874;DHT22;2451;49.970;9.068;2022-09-16T04:06:36;14.10;99.90
4874;DHT22;2451;49.970;9.068;2022-09-16T04:09:03;14.10;99.90
4874;DHT22;2451;49.970;9.068;2022-09-16T04:11:29;14.10;99.90
4874;DHT22;2451;49.970;9.068;2022-09-16T04:13:56;14.10;99.90
4874;DHT22;2451;49.970;9.068;2022-09-16T04:16:22;14.10;99.90
4874;DHT22;2451;49.970;9.068;2022-09-16T04:18:48;14.10;99.90
4874;DHT22;2451;49.970;9.068;2022-09-16T04:21:13;14.10;99.90
4874;DHT22;2451;49.970;9.068;2022-09-16T04:23:39;14.10;99.90
4874;DHT22;2451;49.970;9.068;2022-09-16T04:26:05;14.10;99.90
4874;DHT22;2451;49.970;9.068;2022-09-16T04:28:32;14.10;99.90
4874;DHT22;2451;49.970;9.068;2022-09-16T04:31:05;14.10;99.90
4874;DHT22;2451;49.970;9.068;2022-09-16T04:33:32;14.10;99.90
4874;DHT22;2451;49.970;9.068;2022-09-16T04:36:11;14.10;99.90
4874;DHT22;2451;49.970;9.068;2022-09-16T04:38:38;14.10;99.90
4874;DHT22;2451;49.970;9.068;2022-09-16T04:41:07;14.10;99.90
4874;DHT22;2451;49.970;9.068;2022-09-16T04:43:33;14.00;99.90
4874;DHT22;2451;49.970;9.068;2022-09-16T04:45:59;14.00;99.90
4874;DHT22;2451;49.970;9.068;2022-09-16T04:48:25;14.00;99.90
4874;DHT22;2451;49.970;9.068;2022-09-16T04:50:54;14.00;99.90
4874;DHT22;2451;49.970;9.068;2022-09-16T04:53:20;14.00;99.90
4874;DHT22;2451;49.970;9.068;2022-09-16T04:55:46;13.90;99.90
4874;DHT22;2451;49.970;9.068;2022-09-16T04:58:12;13.90;99.90
4874;DHT22;2451;49.970;9.068;2022-09-16T05:00:38;13.80;99.90
4874;DHT22;2451;49.970;9.068;2022-09-16T05:03:04;13.80;99.90
4874;DHT22;2451;49.970;9.068;2022-09-16T05:05:29;13.80;99.90
4874;DHT22;2451;49.970;9.068;2022-09-16T05:07:55;13.70;99.90
4874;DHT22;2451;49.970;9.068;2022-09-16T05:10:21;13.70;99.90
4874;DHT22;2451;49.970;9.068;2022-09-16T05:12:52;13.60;99.90
4874;DHT22;2451;49.970;9.068;2022-09-16T05:15:19;13.60;99.90
4874;DHT22;2451;49.970;9.068;2022-09-16T05:17:45;13.60;99.90
4874;DHT22;2451;49.970;9.068;2022-09-16T05:20:11;13.60;99.90
4874;DHT22;2451;49.970;9.068;2022-09-16T05:22:37;13.50;99.90
4874;DHT22;2451;49.970;9.068;2022-09-16T05:25:03;13.50;99.90
4874;DHT22;2451;49.970;9.068;2022-09-16T05:27:30;13.50;99.90
4874;DHT22;2451;49.970;9.068;2022-09-16T05:29:55;13.40;99.90
4874;DHT22;2451;49.970;9.068;2022-09-16T05:32:21;13.40;99.90
4874;DHT22;2451;49.970;9.068;2022-09-16T05:34:46;13.40;99.90
4874;DHT22;2451;49.970;9.068;2022-09-16T05:37:13;13.40;99.90
4874;DHT22;2451;49.970;9.068;2022-09-16T05:39:39;13.30;99.90
4874;DHT22;2451;49.970;9.068;2022-09-16T05:42:05;13.30;99.90
4874;DHT22;2451;49.970;9.068;2022-09-16T05:44:30;13.30;99.90
4874;DHT22;2451;49.970;9.068;2022-09-16T05:46:56;13.40;99.90
4874;DHT22;2451;49.970;9.068;2022-09-16T05:49:22;13.30;99.90
4874;DHT22;2451;49.970;9.068;2022-09-16T05:51:49;13.40;99.90
4874;DHT22;2451;49.970;9.068;2022-09-16T05:54:15;13.40;99.90
4874;DHT22;2451;49.970;9.068;2022-09-16T05:56:43;13.40;99.90
4874;DHT22;2451;49.970;9.068;2022-09-16T05:59:10;13.50;99.90
4874;DHT22;2451;49.970;9.068;2022-09-16T06:01:36;13.60;99.90
4874;DHT22;2451;49.970;9.068;2022-09-16T06:04:04;13.70;99.90
4874;DHT22;2451;49.970;9.068;2022-09-16T06:06:38;13.70;99.90
4874;DHT22;2451;49.970;9.068;2022-09-16T06:11:29;13.80;99.90
4874;DHT22;2451;49.970;9.068;2022-09-16T06:13:57;13.90;99.90
4874;DHT22;2451;49.970;9.068;2022-09-16T06:16:25;14.00;99.90
4874;DHT22;2451;49.970;9.068;2022-09-16T06:18:51;14.10;99.90
4874;DHT22;2451;49.970;9.068;2022-09-16T06:21:17;14.20;99.90
4874;DHT22;2451;49.970;9.068;2022-09-16T06:23:43;14.40;99.90
4874;DHT22;2451;49.970;9.068;2022-09-16T06:26:14;14.50;99.90
4874;DHT22;2451;49.970;9.068;2022-09-16T06:28:40;14.60;99.90
4874;DHT22;2451;49.970;9.068;2022-09-16T06:31:10;14.70;99.90
4874;DHT22;2451;49.970;9.068;2022-09-16T06:33:36;14.90;99.90
4874;DHT22;2451;49.970;9.068;2022-09-16T06:38:29;15.40;99.90
4874;DHT22;2451;49.970;9.068;2022-09-16T06:40:58;15.60;99.90
4874;DHT22;2451;49.970;9.068;2022-09-16T06:43:24;15.70;99.90
4874;DHT22;2451;49.970;9.068;2022-09-16T06:45:49;15.80;99.90
4874;DHT22;2451;49.970;9.068;2022-09-16T06:48:15;15.80;99.90
4874;DHT22;2451;49.970;9.068;2022-09-16T06:50:40;15.70;99.90
4874;DHT22;2451;49.970;9.068;2022-09-16T06:53:06;15.70;99.90
4874;DHT22;2451;49.970;9.068;2022-09-16T06:55:31;15.70;99.90
4874;DHT22;2451;49.970;9.068;2022-09-16T06:57:58;15.70;99.90
4874;DHT22;2451;49.970;9.068;2022-09-16T07:00:23;15.70;99.90
4874;DHT22;2451;49.970;9.068;2022-09-16T07:02:49;15.60;99.90
4874;DHT22;2451;49.970;9.068;2022-09-16T07:05:14;15.60;99.90
4874;DHT22;2451;49.970;9.068;2022-09-16T07:07:40;15.50;99.90
4874;DHT22;2451;49.970;9.068;2022-09-16T07:10:06;15.50;99.90
4874;DHT22;2451;49.970;9.068;2022-09-16T07:12:31;15.60;99.90
4874;DHT22;2451;49.970;9.068;2022-09-16T07:14:57;15.80;99.90
4874;DHT22;2451;49.970;9.068;2022-09-16T07:17:22;16.10;99.90
4874;DHT22;2451;49.970;9.068;2022-09-16T07:19:51;16.30;99.90
4874;DHT22;2451;49.970;9.068;2022-09-16T07:22:17;16.50;99.90
4874;DHT22;2451;49.970;9.068;2022-09-16T07:24:43;16.50;99.90
4874;DHT22;2451;49.970;9.068;2022-09-16T07:27:08;16.60;99.90
4874;DHT22;2451;49.970;9.068;2022-09-16T07:29:34;16.50;99.90
4874;DHT22;2451;49.970;9.068;2022-09-16T07:31:59;16.50;99.90
4874;DHT22;2451;49.970;9.068;2022-09-16T07:34:25;16.50;99.90
4874;DHT22;2451;49.970;9.068;2022-09-16T07:36:50;16.40;99.90
4874;DHT22;2451;49.970;9.068;2022-09-16T07:39:17;16.40;99.90
4874;DHT22;2451;49.970;9.068;2022-09-16T07:41:45;16.40;99.90
4874;DHT22;2451;49.970;9.068;2022-09-16T07:44:14;16.30;99.90
4874;DHT22;2451;49.970;9.068;2022-09-16T07:46:40;16.20;99.90
4874;DHT22;2451;49.970;9.068;2022-09-16T07:49:07;16.10;99.90
4874;DHT22;2451;49.970;9.068;2022-09-16T07:51:33;16.00;99.90
4874;DHT22;2451;49.970;9.068;2022-09-16T07:54:02;15.90;99.90
4874;DHT22;2451;49.970;9.068;2022-09-16T07:56:30;15.90;99.90
4874;DHT22;2451;49.970;9.068;2022-09-16T07:58:59;15.90;99.90
4874;DHT22;2451;49.970;9.068;2022-09-16T08:01:24;16.00;99.90
4874;DHT22;2451;49.970;9.068;2022-09-16T08:03:50;16.00;99.90
4874;DHT22;2451;49.970;9.068;2022-09-16T08:06:19;16.10;99.90
4874;DHT22;2451;49.970;9.068;2022-09-16T08:08:45;16.20;99.90
4874;DHT22;2451;49.970;9.068;2022-09-16T08:11:11;16.40;99.90
4874;DHT22;2451;49.970;9.068;2022-09-16T08:13:39;16.80;99.90
4874;DHT22;2451;49.970;9.068;2022-09-16T08:16:07;16.80;99.90
4874;DHT22;2451;49.970;9.068;2022-09-16T08:18:33;16.80;99.90
4874;DHT22;2451;49.970;9.068;2022-09-16T08:21:07;16.70;99.90
4874;DHT22;2451;49.970;9.068;2022-09-16T08:23:34;16.50;99.90
4874;DHT22;2451;49.970;9.068;2022-09-16T08:26:00;16.30;99.90
4874;DHT22;2451;49.970;9.068;2022-09-16T08:28:27;16.20;99.90
4874;DHT22;2451;49.970;9.068;2022-09-16T08:30:53;16.10;99.90
4874;DHT22;2451;49.970;9.068;2022-09-16T08:33:19;16.20;99.90
4874;DHT22;2451;49.970;9.068;2022-09-16T08:35:59;16.50;99.90
4874;DHT22;2451;49.970;9.068;2022-09-16T08:38:25;16.80;99.90
4874;DHT22;2451;49.970;9.068;2022-09-16T08:40:57;17.10;99.90
4874;DHT22;2451;49.970;9.068;2022-09-16T08:43:35;17.30;99.90
4874;DHT22;2451;49.970;9.068;2022-09-16T08:46:08;17.50;99.90
4874;DHT22;2451;49.970;9.068;2022-09-16T08:48:46;17.60;99.90
4874;DHT22;2451;49.970;9.068;2022-09-16T08:51:17;18.00;99.90
4874;DHT22;2451;49.970;9.068;2022-09-16T08:56:23;17.90;99.90
4874;DHT22;2451;49.970;9.068;2022-09-16T08:58:55;17.70;99.90
4874;DHT22;2451;49.970;9.068;2022-09-16T09:04:03;17.20;99.90
4874;DHT22;2451;49.970;9.068;2022-09-16T09:14:28;16.60;99.90
4874;DHT22;2451;49.970;9.068;2022-09-16T09:17:23;16.40;99.90
4874;DHT22;2451;49.970;9.068;2022-09-16T09:25:58;17.50;99.90
4874;DHT22;2451;49.970;9.068;2022-09-16T09:42:30;19.80;99.90
4874;DHT22;2451;49.970;9.068;2022-09-16T09:47:51;20.20;99.60
4874;DHT22;2451;49.970;9.068;2022-09-16T09:50:37;20.30;99.90
4874;DHT22;2451;49.970;9.068;2022-09-16T09:53:39;20.80;99.90
4874;DHT22;2451;49.970;9.068;2022-09-16T09:58:56;21.10;99.90
4874;DHT22;2451;49.970;9.068;2022-09-16T10:01:24;20.70;99.90
4874;DHT22;2451;49.970;9.068;2022-09-16T10:03:50;20.30;99.90
4874;DHT22;2451;49.970;9.068;2022-09-16T10:06:25;19.80;99.90
4874;DHT22;2451;49.970;9.068;2022-09-16T10:08:54;19.40;99.90
4874;DHT22;2451;49.970;9.068;2022-09-16T10:11:23;19.10;99.90
4874;DHT22;2451;49.970;9.068;2022-09-16T10:13:57;18.80;99.60
4874;DHT22;2451;49.970;9.068;2022-09-16T10:16:30;18.70;99.90
4874;DHT22;2451;49.970;9.068;2022-09-16T10:21:25;18.90;99.90
4874;DHT22;2451;49.970;9.068;2022-09-16T10:24:01;18.70;99.90
4874;DHT22;2451;49.970;9.068;2022-09-16T10:26:27;18.50;99.90
4874;DHT22;2451;49.970;9.068;2022-09-16T10:28:56;18.40;99.90
4874;DHT22;2451;49.970;9.068;2022-09-16T10:31:24;18.20;99.90
4874;DHT22;2451;49.970;9.068;2022-09-16T10:33:50;18.10;99.90
4874;DHT22;2451;49.970;9.068;2022-09-16T10:36:23;17.90;99.90
4874;DHT22;2451;49.970;9.068;2022-09-16T10:38:59;17.80;99.90
4874;DHT22;2451;49.970;9.068;2022-09-16T10:41:27;17.60;99.90
4874;DHT22;2451;49.970;9.068;2022-09-16T10:44:03;17.50;99.90
4874;DHT22;2451;49.970;9.068;2022-09-16T10:46:30;17.40;99.90
4874;DHT22;2451;49.970;9.068;2022-09-16T10:49:09;17.50;99.90
4874;DHT22;2451;49.970;9.068;2022-09-16T10:51:35;17.50;99.90
4874;DHT22;2451;49.970;9.068;2022-09-16T10:54:03;17.50;99.90
4874;DHT22;2451;49.970;9.068;2022-09-16T10:56:33;17.50;99.90
4874;DHT22;2451;49.970;9.068;2022-09-16T10:59:03;17.60;99.90
4874;DHT22;2451;49.970;9.068;2022-09-16T11:01:43;17.70;99.90
4874;DHT22;2451;49.970;9.068;2022-09-16T11:04:27;17.70;99.90
4874;DHT22;2451;49.970;9.068;2022-09-16T11:07:21;17.80;99.90
4874;DHT22;2451;49.970;9.068;2022-09-16T11:10:26;17.90;99.90
4874;DHT22;2451;49.970;9.068;2022-09-16T11:13:38;18.00;99.90
4874;DHT22;2451;49.970;9.068;2022-09-16T11:16:31;18.00;99.90
4874;DHT22;2451;49.970;9.068;2022-09-16T11:24:37;18.20;99.90
4874;DHT22;2451;49.970;9.068;2022-09-16T11:29:56;18.10;99.90
4874;DHT22;2451;49.970;9.068;2022-09-16T11:37:53;17.90;99.90
4874;DHT22;2451;49.970;9.068;2022-09-16T11:40:45;17.90;99.90
4874;DHT22;2451;49.970;9.068;2022-09-16T11:46:32;17.90;99.90
4874;DHT22;2451;49.970;9.068;2022-09-16T11:57:12;18.40;99.90
4874;DHT22;2451;49.970;9.068;2022-09-16T12:00:04;18.50;99.90
4874;DHT22;2451;49.970;9.068;2022-09-16T12:02:41;18.50;99.90
4874;DHT22;2451;49.970;9.068;2022-09-16T12:05:18;18.50;99.90
4874;DHT22;2451;49.970;9.068;2022-09-16T12:08:03;18.30;99.10
4874;DHT22;2451;49.970;9.068;2022-09-16T12:13:48;18.20;99.90
4874;DHT22;2451;49.970;9.068;2022-09-16T12:16:19;18.10;99.90
4874;DHT22;2451;49.970;9.068;2022-09-16T12:18:57;18.00;99.90
4874;DHT22;2451;49.970;9.068;2022-09-16T12:21:31;18.20;99.90
4874;DHT22;2451;49.970;9.068;2022-09-16T12:24:21;18.40;99.90
4874;DHT22;2451;49.970;9.068;2022-09-16T12:27:00;19.20;99.80
4874;DHT22;2451;49.970;9.068;2022-09-16T12:32:04;19.60;98.90
4874;DHT22;2451;49.970;9.068;2022-09-16T12:34:51;19.20;98.30
4874;DHT22;2451;49.970;9.068;2022-09-16T12:40:28;19.40;98.80
4874;DHT22;2451;49.970;9.068;2022-09-16T12:48:41;19.50;98.50
4874;DHT22;2451;49.970;9.068;2022-09-16T12:54:07;18.00;99.90
4874;DHT22;2451;49.970;9.068;2022-09-16T12:56:47;17.30;99.90
4874;DHT22;2451;49.970;9.068;2022-09-16T13:02:22;15.80;99.90
4874;DHT22;2451;49.970;9.068;2022-09-16T13:04:52;15.50;99.90
4874;DHT22;2451;49.970;9.068;2022-09-16T13:07:29;15.30;99.90
4874;DHT22;2451;49.970;9.068;2022-09-16T13:10:02;15.10;99.90
4874;DHT22;2451;49.970;9.068;2022-09-16T13:12:29;14.90;99.90
4874;DHT22;2451;49.970;9.068;2022-09-16T13:15:01;14.80;99.90
4874;DHT22;2451;49.970;9.068;2022-09-16T13:17:32;14.80;99.90
4874;DHT22;2451;49.970;9.068;2022-09-16T13:25:28;15.10;99.90
4874;DHT22;2451;49.970;9.068;2022-09-16T13:33:41;16.30;99.90
4874;DHT22;2451;49.970;9.068;2022-09-16T13:38:49;17.50;99.90
4874;DHT22;2451;49.970;9.068;2022-09-16T13:47:29;18.70;99.90
4874;DHT22;2451;49.970;9.068;2022-09-16T13:50:05;19.10;99.90
4874;DHT22;2451;49.970;9.068;2022-09-16T13:52:35;19.30;99.90
4874;DHT22;2451;49.970;9.068;2022-09-16T13:55:04;19.50;99.90
4874;DHT22;2451;49.970;9.068;2022-09-16T14:00:21;19.90;99.90
4874;DHT22;2451;49.970;9.068;2022-09-16T14:06:14;20.10;99.90
4874;DHT22;2451;49.970;9.068;2022-09-16T14:11:52;19.00;99.90
4874;DHT22;2451;49.970;9.068;2022-09-16T14:14:22;19.10;99.90
4874;DHT22;2451;49.970;9.068;2022-09-16T14:16:49;19.30;99.90
4874;DHT22;2451;49.970;9.068;2022-09-16T14:19:25;19.40;99.90
4874;DHT22;2451;49.970;9.068;2022-09-16T14:22:15;19.50;99.90
4874;DHT22;2451;49.970;9.068;2022-09-16T14:24:43;19.70;99.90
4874;DHT22;2451;49.970;9.068;2022-09-16T14:30:02;19.70;99.90
4874;DHT22;2451;49.970;9.068;2022-09-16T14:32:30;19.90;99.90
4874;DHT22;2451;49.970;9.068;2022-09-16T14:34:59;19.80;99.90
4874;DHT22;2451;49.970;9.068;2022-09-16T14:37:27;19.20;99.90
4874;DHT22;2451;49.970;9.068;2022-09-16T14:39:53;18.90;99.90
4874;DHT22;2451;49.970;9.068;2022-09-16T14:42:21;18.70;99.90
4874;DHT22;2451;49.970;9.068;2022-09-16T14:44:48;18.90;99.90
4874;DHT22;2451;49.970;9.068;2022-09-16T14:49:49;19.30;99.90
4874;DHT22;2451;49.970;9.068;2022-09-16T14:52:25;19.20;99.90
4874;DHT22;2451;49.970;9.068;2022-09-16T14:54:51;19.10;99.90
4874;DHT22;2451;49.970;9.068;2022-09-16T14:57:25;18.80;99.90
4874;DHT22;2451;49.970;9.068;2022-09-16T15:00:00;18.50;99.90
4874;DHT22;2451;49.970;9.068;2022-09-16T15:02:32;18.30;99.90
4874;DHT22;2451;49.970;9.068;2022-09-16T15:07:48;17.70;99.90
4874;DHT22;2451;49.970;9.068;2022-09-16T15:10:21;17.30;99.90
4874;DHT22;2451;49.970;9.068;2022-09-16T15:12:50;16.90;99.90
4874;DHT22;2451;49.970;9.068;2022-09-16T15:15:26;16.60;99.90
4874;DHT22;2451;49.970;9.068;2022-09-16T15:17:57;15.70;99.90
4874;DHT22;2451;49.970;9.068;2022-09-16T15:20:26;15.10;99.90
4874;DHT22;2451;49.970;9.068;2022-09-16T15:22:53;14.70;99.90
4874;DHT22;2451;49.970;9.068;2022-09-16T15:25:24;14.50;99.90
4874;DHT22;2451;49.970;9.068;2022-09-16T15:28:15;14.20;99.90
4874;DHT22;2451;49.970;9.068;2022-09-16T15:30:52;14.00;99.90
4874;DHT22;2451;49.970;9.068;2022-09-16T15:33:26;14.00;99.90
4874;DHT22;2451;49.970;9.068;2022-09-16T15:35:56;13.90;99.90
4874;DHT22;2451;49.970;9.068;2022-09-16T15:38:22;13.90;99.90
4874;DHT22;2451;49.970;9.068;2022-09-16T15:41:09;13.90;99.90
4874;DHT22;2451;49.970;9.068;2022-09-16T15:43:43;13.90;99.90
4874;DHT22;2451;49.970;9.068;2022-09-16T15:46:16;13.90;99.90
4874;DHT22;2451;49.970;9.068;2022-09-16T15:48:51;13.90;99.90
4874;DHT22;2451;49.970;9.068;2022-09-16T15:51:34;14.00;99.90
4874;DHT22;2451;49.970;9.068;2022-09-16T15:54:25;14.00;99.90
4874;DHT22;2451;49.970;9.068;2022-09-16T15:57:00;14.10;99.90
4874;DHT22;2451;49.970;9.068;2022-09-16T16:05:48;14.40;99.90
4874;DHT22;2451;49.970;9.068;2022-09-16T16:07:59;14.40;99.90
4874;DHT22;2451;49.970;9.068;2022-09-16T16:10:34;14.50;99.90
4874;DHT22;2451;49.970;9.068;2022-09-16T16:13:01;14.50;99.90
4874;DHT22;2451;49.970;9.068;2022-09-16T16:15:32;14.50;99.90
4874;DHT22;2451;49.970;9.068;2022-09-16T16:18:00;14.50;99.90
4874;DHT22;2451;49.970;9.068;2022-09-16T16:20:27;14.40;99.90
4874;DHT22;2451;49.970;9.068;2022-09-16T16:22:53;14.20;99.90
4874;DHT22;2451;49.970;9.068;2022-09-16T16:25:19;14.10;99.90
4874;DHT22;2451;49.970;9.068;2022-09-16T16:27:44;14.10;99.90
4874;DHT22;2451;49.970;9.068;2022-09-16T16:30:10;14.10;99.90
4874;DHT22;2451;49.970;9.068;2022-09-16T16:32:36;14.20;99.90
4874;DHT22;2451;49.970;9.068;2022-09-16T16:35:05;14.10;99.90
4874;DHT22;2451;49.970;9.068;2022-09-16T16:37:31;14.10;99.90
4874;DHT22;2451;49.970;9.068;2022-09-16T16:39:56;14.00;99.90
4874;DHT22;2451;49.970;9.068;2022-09-16T16:42:22;13.90;99.90
4874;DHT22;2451;49.970;9.068;2022-09-16T16:44:49;13.90;99.90
4874;DHT22;2451;49.970;9.068;2022-09-16T16:47:15;13.80;99.90
4874;DHT22;2451;49.970;9.068;2022-09-16T16:49:41;13.70;99.90
4874;DHT22;2451;49.970;9.068;2022-09-16T16:52:07;13.70;99.90
4874;DHT22;2451;49.970;9.068;2022-09-16T16:54:33;13.70;99.90
4874;DHT22;2451;49.970;9.068;2022-09-16T16:56:59;13.80;99.90
4874;DHT22;2451;49.970;9.068;2022-09-16T16:59:26;13.80;99.90
4874;DHT22;2451;49.970;9.068;2022-09-16T17:01:54;13.80;99.90
4874;DHT22;2451;49.970;9.068;2022-09-16T17:04:20;13.80;99.90
4874;DHT22;2451;49.970;9.068;2022-09-16T17:06:47;13.70;99.90
4874;DHT22;2451;49.970;9.068;2022-09-16T17:09:13;13.60;99.90
4874;DHT22;2451;49.970;9.068;2022-09-16T17:11:58;13.50;99.90
4874;DHT22;2451;49.970;9.068;2022-09-16T17:14:26;13.50;99.90
4874;DHT22;2451;49.970;9.068;2022-09-16T17:16:52;13.40;99.90
4874;DHT22;2451;49.970;9.068;2022-09-16T17:19:20;13.40;99.90
4874;DHT22;2451;49.970;9.068;2022-09-16T17:21:46;13.30;99.90
4874;DHT22;2451;49.970;9.068;2022-09-16T17:24:15;13.20;99.90
4874;DHT22;2451;49.970;9.068;2022-09-16T17:26:41;13.20;99.90
4874;DHT22;2451;49.970;9.068;2022-09-16T17:29:08;13.20;99.90
4874;DHT22;2451;49.970;9.068;2022-09-16T17:31:34;13.10;99.90
4874;DHT22;2451;49.970;9.068;2022-09-16T17:34:05;13.10;99.90
4874;DHT22;2451;49.970;9.068;2022-09-16T17:36:32;13.00;99.90
4874;DHT22;2451;49.970;9.068;2022-09-16T17:39:03;13.00;99.90
4874;DHT22;2451;49.970;9.068;2022-09-16T17:41:30;12.90;99.90
4874;DHT22;2451;49.970;9.068;2022-09-16T17:43:56;12.80;99.90
4874;DHT22;2451;49.970;9.068;2022-09-16T17:46:23;12.80;99.90
4874;DHT22;2451;49.970;9.068;2022-09-16T17:48:52;12.70;99.90
4874;DHT22;2451;49.970;9.068;2022-09-16T17:51:17;12.60;99.90
4874;DHT22;2451;49.970;9.068;2022-09-16T17:53:43;12.50;99.90
4874;DHT22;2451;49.970;9.068;2022-09-16T17:56:13;12.50;99.90
4874;DHT22;2451;49.970;9.068;2022-09-16T17:58:42;12.50;99.90
4874;DHT22;2451;49.970;9.068;2022-09-16T18:01:16;12.40;99.90
4874;DHT22;2451;49.970;9.068;2022-09-16T18:03:45;12.40;99.90
4874;DHT22;2451;49.970;9.068;2022-09-16T18:06:12;12.30;99.90
4874;DHT22;2451;49.970;9.068;2022-09-16T18:08:39;12.20;99.90
4874;DHT22;2451;49.970;9.068;2022-09-16T18:11:05;12.10;99.90
4874;DHT22;2451;49.970;9.068;2022-09-16T18:13:31;12.10;99.90
4874;DHT22;2451;49.970;9.068;2022-09-16T18:18:30;11.90;99.90
4874;DHT22;2451;49.970;9.068;2022-09-16T18:20:56;11.90;99.90
4874;DHT22;2451;49.970;9.068;2022-09-16T18:23:21;11.90;99.90
4874;DHT22;2451;49.970;9.068;2022-09-16T18:25:47;11.90;99.90
4874;DHT22;2451;49.970;9.068;2022-09-16T18:28:14;11.90;99.90
4874;DHT22;2451;49.970;9.068;2022-09-16T18:30:39;11.80;99.90
4874;DHT22;2451;49.970;9.068;2022-09-16T18:33:05;11.80;99.90
4874;DHT22;2451;49.970;9.068;2022-09-16T18:35:33;11.80;99.90
4874;DHT22;2451;49.970;9.068;2022-09-16T18:38:02;11.80;99.90
4874;DHT22;2451;49.970;9.068;2022-09-16T18:40:28;11.70;99.90
4874;DHT22;2451;49.970;9.068;2022-09-16T18:42:53;11.70;99.90
4874;DHT22;2451;49.970;9.068;2022-09-16T18:45:19;11.60;99.90
4874;DHT22;2451;49.970;9.068;2022-09-16T18:47:44;11.60;99.90
4874;DHT22;2451;49.970;9.068;2022-09-16T18:50:10;11.60;99.90
4874;DHT22;2451;49.970;9.068;2022-09-16T18:52:35;11.60;99.90
4874;DHT22;2451;49.970;9.068;2022-09-16T18:55:01;11.60;99.90
4874;DHT22;2451;49.970;9.068;2022-09-16T18:57:26;11.50;99.90
4874;DHT22;2451;49.970;9.068;2022-09-16T18:59:52;11.50;99.90
4874;DHT22;2451;49.970;9.068;2022-09-16T19:02:17;11.50;99.90
4874;DHT22;2451;49.970;9.068;2022-09-16T19:04:43;11.50;99.90
4874;DHT22;2451;49.970;9.068;2022-09-16T19:07:11;11.40;99.90
4874;DHT22;2451;49.970;9.068;2022-09-16T19:09:38;11.40;99.90